PROFILE

 METAR AND TAF INFORMATION
ADDS - METARS form results

(0427 UTC 25 April 2019)
http://aviationweather.gov/metar/data/
 
EVRA 250420Z 14005KT CAVOK 14/M01 Q1021 NOSIG
EVRA 250350Z 13005KT CAVOK 14/M01 Q1021 NOSIG
TAF EVRA 250208Z 2503/2603 12007KT CAVOK TEMPO 2509/2515 14015G28KT 

 AIRPORT MAP

 RUNWAY INFORMATION
Runway 18 Runway length 10499 ft Runway width 148 ft
Runway elevation 31 ft Runway displaced threshold 0 ft Runway heading 185
Runway 36 Runway length 10499 ft Runway width 148 ft
Runway elevation 34 ft Runway displaced threshold 0 ft Runway heading 5

 AIRPORT FREQUENCIES
Type APP Name APP Frequency 129.925 MHZ
Type ATIS Name ATIS Frequency 121.2 MHZ
Type GND Name Riga Groun Frequency 118.8 MHZ
Type MISC Name Riga Apron Frequency 131.6 MHZ
Type TWR Name TWR Frequency 118.1 MHZ

 AIRPORT NEAR NAVIGATION AIDS
Type VOR-DME Name Riga Frequency 112050 KHZ
Type VOR-DME Name Riga Frequency 113700 KHZ